createdAt,value
2023-05-01T00:01:53.058Z,16.00
2023-05-01T00:04:22.485Z,21.70
2023-05-01T00:06:51.313Z,11.53
2023-05-01T00:09:20.061Z,12.17
2023-05-01T00:11:50.073Z,13.20
2023-05-01T00:14:18.692Z,16.27
2023-05-01T00:16:48.020Z,17.00
2023-05-01T00:19:19.025Z,15.57
2023-05-01T00:21:48.189Z,10.90
2023-05-01T00:24:18.680Z,15.33
2023-05-01T00:26:47.396Z,14.97
2023-05-01T00:29:18.150Z,15.60
2023-05-01T00:31:47.421Z,12.03
2023-05-01T00:34:16.087Z,11.70
2023-05-01T00:36:44.721Z,11.77
2023-05-01T00:39:13.337Z,12.43
2023-05-01T00:41:41.924Z,11.33
2023-05-01T00:44:10.742Z,10.70
2023-05-01T00:46:43.626Z,13.80
2023-05-01T00:49:12.291Z,10.47
2023-05-01T00:51:41.167Z,12.13
2023-05-01T00:54:10.139Z,10.13
2023-05-01T00:56:38.718Z,12.87
2023-05-01T00:59:07.291Z,13.03
2023-05-01T01:01:35.931Z,18.03
2023-05-01T01:04:06.919Z,14.27
2023-05-01T01:06:42.019Z,17.13
2023-05-01T01:09:17.058Z,16.60
2023-05-01T01:11:51.463Z,13.63
2023-05-01T01:14:21.658Z,14.53
2023-05-01T01:16:54.968Z,16.87
2023-05-01T01:19:58.893Z,14.80
2023-05-01T01:22:28.830Z,17.53
2023-05-01T01:25:15.526Z,21.77
2023-05-01T01:28:16.791Z,20.20
2023-05-01T01:31:04.691Z,14.97
2023-05-01T01:34:04.145Z,21.50
2023-05-01T01:36:47.456Z,24.00
2023-05-01T01:39:24.933Z,26.50
2023-05-01T01:41:53.718Z,18.77
2023-05-01T01:44:24.083Z,19.47
2023-05-01T01:46:52.678Z,16.03
2023-05-01T01:49:24.522Z,16.87
2023-05-01T01:51:53.790Z,16.77
2023-05-01T01:54:27.376Z,16.73
2023-05-01T01:56:56.002Z,16.43
2023-05-01T01:59:25.292Z,14.80
2023-05-01T02:01:54.589Z,12.60
2023-05-01T02:04:24.561Z,14.50
2023-05-01T02:06:53.131Z,15.03
2023-05-01T02:09:23.506Z,12.03
2023-05-01T02:11:52.132Z,18.37
2023-05-01T02:14:20.790Z,13.20
2023-05-01T02:16:49.421Z,18.20
2023-05-01T02:19:18.031Z,15.07
2023-05-01T02:21:47.950Z,14.80
2023-05-01T02:24:16.526Z,11.03
2023-05-01T02:26:47.081Z,13.50
2023-05-01T02:29:15.656Z,17.80
2023-05-01T02:31:44.689Z,19.17
2023-05-01T02:34:13.349Z,12.30
2023-05-01T02:36:42.230Z,11.60
2023-05-01T02:39:12.230Z,10.73
2023-05-01T02:41:40.861Z,13.80
2023-05-01T02:44:09.985Z,17.97
2023-05-01T02:46:38.792Z,15.00
2023-05-01T02:49:07.722Z,15.70
2023-05-01T02:51:36.584Z,15.30
2023-05-01T02:54:05.306Z,14.23
2023-05-01T02:56:35.257Z,12.30
2023-05-01T02:59:03.789Z,12.77
2023-05-01T03:01:32.402Z,13.83
2023-05-01T03:04:01.091Z,13.07
2023-05-01T03:06:31.210Z,13.00
2023-05-01T03:08:59.899Z,12.03
2023-05-01T03:11:28.508Z,12.87
2023-05-01T03:13:58.481Z,10.10
2023-05-01T03:16:27.403Z,9.00
2023-05-01T03:18:56.206Z,8.40
2023-05-01T03:21:24.718Z,8.30
2023-05-01T03:23:53.348Z,8.70
2023-05-01T03:26:21.942Z,11.97
2023-05-01T03:28:50.487Z,9.50
2023-05-01T03:31:20.423Z,6.50
2023-05-01T03:33:49.043Z,8.17
2023-05-01T03:36:17.652Z,8.67
2023-05-01T03:38:47.402Z,7.27
2023-05-01T03:41:15.980Z,7.10
2023-05-01T03:43:44.572Z,10.00
2023-05-01T03:46:13.215Z,7.50
2023-05-01T03:48:43.246Z,12.10
2023-05-01T03:51:11.881Z,10.43
2023-05-01T03:53:40.976Z,10.33
2023-05-01T03:56:09.570Z,10.07
2023-05-01T03:58:38.914Z,9.50
2023-05-01T04:01:07.484Z,9.37
2023-05-01T04:03:36.126Z,11.07
2023-05-01T04:06:06.398Z,8.37
2023-05-01T04:08:35.118Z,8.90
2023-05-01T04:11:03.688Z,9.43
2023-05-01T04:13:32.257Z,11.63
2023-05-01T04:16:01.888Z,7.23
2023-05-01T04:18:30.773Z,9.53
2023-05-01T04:20:59.395Z,9.03
2023-05-01T04:23:29.356Z,6.50
2023-05-01T04:25:58.015Z,10.60
2023-05-01T04:28:27.770Z,15.40
2023-05-01T04:30:56.308Z,8.57
2023-05-01T04:33:24.971Z,15.13
2023-05-01T04:35:53.544Z,8.33
2023-05-01T04:38:22.100Z,8.80
2023-05-01T04:40:52.470Z,9.30
2023-05-01T04:43:21.016Z,10.97
2023-05-01T04:45:49.724Z,13.50
2023-05-01T04:48:18.427Z,6.23
2023-05-01T04:50:47.018Z,12.53
2023-05-01T04:53:15.660Z,7.93
2023-05-01T04:55:44.243Z,9.77
2023-05-01T04:58:14.230Z,8.30
2023-05-01T05:00:42.890Z,6.80
2023-05-01T05:03:11.575Z,5.63
2023-05-01T05:05:40.264Z,10.13
2023-05-01T05:08:09.337Z,5.53
2023-05-01T05:10:37.915Z,19.03
2023-05-01T05:13:06.485Z,6.87
2023-05-01T05:15:36.473Z,6.23
2023-05-01T05:18:05.132Z,7.03
2023-05-01T05:20:33.686Z,8.50
2023-05-01T05:23:02.242Z,10.03
2023-05-01T05:25:30.755Z,6.40
2023-05-01T05:28:00.480Z,6.37
2023-05-01T05:30:29.246Z,8.43
2023-05-01T05:32:59.218Z,7.87
2023-05-01T05:35:28.401Z,10.13
2023-05-01T05:37:56.945Z,9.80
2023-05-01T05:40:25.578Z,9.60
2023-05-01T05:42:54.443Z,6.57
2023-05-01T05:45:23.437Z,4.43
2023-05-01T05:47:52.056Z,5.00
2023-05-01T05:50:22.423Z,4.70
2023-05-01T05:52:51.158Z,6.10
2023-05-01T05:55:19.878Z,7.83
2023-05-01T05:57:48.463Z,6.63
2023-05-01T06:00:18.581Z,4.87
2023-05-01T06:02:47.229Z,7.80
2023-05-01T06:05:15.969Z,6.13
2023-05-01T06:07:46.200Z,4.67
2023-05-01T06:10:14.746Z,9.37
2023-05-01T06:12:51.011Z,8.83
2023-05-01T06:15:27.115Z,4.10
2023-05-01T06:17:56.365Z,3.80
2023-05-01T06:20:25.042Z,4.20
2023-05-01T06:22:54.959Z,7.67
2023-05-01T06:25:24.139Z,3.83
2023-05-01T06:27:52.849Z,5.07
2023-05-01T06:30:21.971Z,6.70
2023-05-01T06:32:50.745Z,6.27
2023-05-01T06:35:19.531Z,7.90
2023-05-01T06:37:48.083Z,6.80
2023-05-01T06:40:18.048Z,10.07
2023-05-01T06:42:46.613Z,4.90
2023-05-01T06:45:15.210Z,5.20
2023-05-01T06:47:43.792Z,4.70
2023-05-01T06:50:12.756Z,8.90
2023-05-01T06:52:44.715Z,6.83
2023-05-01T06:55:13.461Z,5.53
2023-05-01T06:57:43.416Z,3.93
2023-05-01T07:00:13.791Z,9.93
2023-05-01T07:02:42.596Z,11.20
2023-05-01T07:05:12.587Z,7.00
2023-05-01T07:07:47.288Z,9.70
2023-05-01T07:10:19.242Z,8.53
2023-05-01T07:12:49.228Z,10.03
2023-05-01T07:15:17.877Z,6.60
2023-05-01T07:17:46.723Z,6.97
2023-05-01T07:20:16.919Z,8.40
2023-05-01T07:22:45.521Z,4.27
2023-05-01T07:25:14.264Z,4.57
2023-05-01T07:27:42.892Z,10.03
2023-05-01T07:30:13.790Z,3.80
2023-05-01T07:32:42.450Z,6.83
2023-05-01T07:35:11.237Z,6.57
2023-05-01T07:37:39.851Z,4.03
2023-05-01T07:40:09.353Z,9.90
2023-05-01T07:42:37.882Z,5.23
2023-05-01T07:45:07.475Z,7.80
2023-05-01T07:47:37.886Z,3.63
2023-05-01T07:50:11.534Z,5.77
2023-05-01T07:52:40.278Z,5.90
2023-05-01T07:55:10.116Z,8.80
2023-05-01T07:57:38.765Z,5.63
2023-05-01T08:00:10.405Z,3.60
2023-05-01T08:02:42.539Z,8.63
2023-05-01T08:05:11.433Z,4.53
2023-05-01T08:07:40.156Z,7.30
2023-05-01T08:10:09.608Z,7.17
2023-05-01T08:12:39.917Z,3.20
2023-05-01T08:15:09.424Z,5.80
2023-05-01T08:17:39.453Z,13.30
2023-05-01T08:20:09.255Z,6.83
2023-05-01T08:22:40.968Z,4.87
2023-05-01T08:25:09.917Z,4.80
2023-05-01T08:27:38.497Z,9.00
2023-05-01T08:30:08.332Z,5.33
2023-05-01T08:32:36.865Z,5.50
2023-05-01T08:35:07.578Z,7.40
2023-05-01T08:37:36.245Z,2.80
2023-05-01T08:40:08.808Z,8.90
2023-05-01T08:42:39.101Z,3.03
2023-05-01T08:45:09.041Z,7.17
2023-05-01T08:47:38.862Z,2.97
2023-05-01T08:50:11.124Z,2.90
2023-05-01T08:52:41.450Z,2.83
2023-05-01T08:55:10.808Z,4.63
2023-05-01T08:57:39.373Z,3.30
2023-05-01T09:00:11.152Z,4.40
2023-05-01T09:02:39.755Z,4.23
2023-05-01T09:05:10.659Z,4.00
2023-05-01T09:07:39.266Z,3.00
2023-05-01T09:10:08.772Z,5.80
2023-05-01T09:12:37.608Z,3.53
2023-05-01T09:15:07.707Z,3.93
2023-05-01T09:17:36.924Z,4.90
2023-05-01T09:20:07.703Z,4.37
2023-05-01T09:22:37.737Z,7.70
2023-05-01T09:25:07.022Z,5.70
2023-05-01T09:27:36.427Z,8.83
2023-05-01T09:30:06.009Z,4.00
2023-05-01T09:32:36.512Z,4.13
2023-05-01T09:35:14.354Z,3.47
2023-05-01T09:37:44.872Z,4.27
2023-05-01T09:40:15.505Z,6.80
2023-05-01T09:42:50.689Z,5.40
2023-05-01T09:45:19.757Z,4.37
2023-05-01T09:47:48.513Z,3.70
2023-05-01T09:50:31.438Z,6.50
2023-05-01T09:53:01.780Z,6.20
2023-05-01T09:55:30.429Z,4.93
2023-05-01T09:57:59.112Z,3.57
2023-05-01T10:00:27.722Z,8.20
2023-05-01T10:02:56.612Z,7.10
2023-05-01T10:05:25.342Z,4.47
2023-05-01T10:07:58.888Z,3.67
2023-05-01T10:10:28.961Z,6.53
2023-05-01T10:13:06.393Z,6.40
2023-05-01T10:15:38.693Z,5.03
2023-05-01T10:18:07.306Z,5.13
2023-05-01T10:20:36.002Z,3.53
2023-05-01T10:23:04.579Z,6.30
2023-05-01T10:25:35.023Z,4.50
2023-05-01T10:28:05.472Z,4.97
2023-05-01T10:30:34.220Z,3.77
2023-05-01T10:33:03.124Z,3.77
2023-05-01T10:35:34.395Z,14.07
2023-05-01T10:38:03.978Z,2.90
2023-05-01T10:40:50.698Z,4.97
2023-05-01T10:43:21.077Z,3.30
2023-05-01T10:45:49.974Z,8.10
2023-05-01T10:48:56.406Z,3.30
2023-05-01T10:51:27.454Z,4.93
2023-05-01T10:54:24.199Z,9.67
2023-05-01T10:56:54.894Z,3.93
2023-05-01T10:59:23.621Z,6.77
2023-05-01T11:01:52.730Z,4.90
2023-05-01T11:04:48.277Z,5.53
2023-05-01T11:07:17.857Z,8.47
2023-05-01T11:09:49.272Z,4.03
2023-05-01T11:12:48.877Z,6.60
2023-05-01T11:15:27.831Z,5.13
2023-05-01T11:17:56.576Z,7.13
2023-05-01T11:20:48.336Z,5.70
2023-05-01T11:23:23.579Z,4.37
2023-05-01T11:25:59.583Z,3.63
2023-05-01T11:28:29.470Z,3.70
2023-05-01T11:30:58.100Z,3.50
2023-05-01T11:33:27.553Z,3.40
2023-05-01T11:36:02.810Z,6.47
2023-05-01T11:38:31.490Z,3.00
2023-05-01T11:41:04.197Z,4.33
2023-05-01T11:43:36.016Z,3.87
2023-05-01T11:46:04.623Z,4.90
2023-05-01T11:48:33.394Z,3.57
2023-05-01T11:51:01.972Z,6.17
2023-05-01T11:53:32.645Z,4.97
2023-05-01T11:56:01.266Z,5.30
2023-05-01T11:58:36.382Z,8.23
2023-05-01T12:01:07.235Z,6.53
2023-05-01T12:03:44.980Z,7.87
2023-05-01T12:06:14.187Z,3.73
2023-05-01T12:08:50.338Z,6.47
2023-05-01T12:11:20.577Z,4.27
2023-05-01T12:13:50.552Z,5.80
2023-05-01T12:16:19.370Z,4.80
2023-05-01T12:18:48.262Z,5.63
2023-05-01T12:21:17.788Z,3.90
2023-05-01T12:23:46.641Z,3.57
2023-05-01T12:26:18.771Z,3.57
2023-05-01T12:28:59.001Z,3.40
2023-05-01T12:31:29.544Z,4.03
2023-05-01T12:33:58.565Z,6.40
2023-05-01T12:36:28.382Z,3.90
2023-05-01T12:38:58.599Z,5.50
2023-05-01T12:41:40.485Z,7.37
2023-05-01T12:44:20.155Z,6.10
2023-05-01T12:46:55.777Z,5.33
2023-05-01T12:49:24.643Z,4.73
2023-05-01T12:51:53.966Z,2.63
2023-05-01T12:54:23.103Z,3.93
2023-05-01T12:56:53.165Z,4.43
2023-05-01T12:59:24.157Z,4.10
2023-05-01T13:02:00.405Z,5.80
2023-05-01T13:04:29.239Z,3.80
2023-05-01T13:06:58.042Z,6.60
2023-05-01T13:09:27.343Z,4.30
2023-05-01T13:12:05.047Z,3.70
2023-05-01T13:14:39.177Z,7.93
2023-05-01T13:17:09.952Z,3.57
2023-05-01T13:19:38.675Z,3.63
2023-05-01T13:22:07.330Z,4.50
2023-05-01T13:24:40.239Z,6.10
2023-05-01T13:27:10.784Z,5.63
2023-05-01T13:29:41.786Z,4.03
2023-05-01T13:32:12.604Z,4.40
2023-05-01T13:34:43.843Z,6.13
2023-05-01T13:37:14.604Z,5.53
2023-05-01T13:39:43.667Z,7.50
2023-05-01T13:42:13.546Z,7.20
2023-05-01T13:44:49.007Z,5.30
2023-05-01T13:47:20.213Z,5.47
2023-05-01T13:49:49.223Z,4.23
2023-05-01T13:52:19.055Z,3.10
2023-05-01T13:54:49.571Z,3.77
2023-05-01T13:57:18.179Z,3.87
2023-05-01T13:59:48.631Z,3.90
2023-05-01T14:02:21.756Z,4.80
2023-05-01T14:04:50.777Z,4.87
2023-05-01T14:07:20.087Z,4.63
2023-05-01T14:09:51.172Z,3.97
2023-05-01T14:12:19.971Z,5.40
2023-05-01T14:14:50.123Z,8.00
2023-05-01T14:17:21.359Z,6.70
2023-05-01T14:19:52.502Z,5.23
2023-05-01T14:22:22.275Z,4.53
2023-05-01T14:24:51.116Z,4.03
2023-05-01T14:27:20.454Z,9.57
2023-05-01T14:29:51.040Z,7.53
2023-05-01T14:32:19.648Z,6.33
2023-05-01T14:34:48.311Z,4.20
2023-05-01T14:37:17.436Z,7.30
2023-05-01T14:39:46.000Z,3.70
2023-05-01T14:42:14.512Z,9.57
2023-05-01T14:44:43.069Z,4.10
2023-05-01T14:47:13.349Z,6.23
2023-05-01T14:49:41.888Z,4.40
2023-05-01T14:52:10.692Z,4.10
2023-05-01T14:54:46.253Z,4.60
2023-05-01T14:57:14.848Z,4.37
2023-05-01T14:59:43.458Z,3.70
2023-05-01T15:02:13.521Z,3.70
2023-05-01T15:04:44.744Z,5.07
2023-05-01T15:07:13.300Z,6.07
2023-05-01T15:09:43.495Z,4.67
2023-05-01T15:12:12.140Z,4.87
2023-05-01T15:14:42.888Z,7.80
2023-05-01T15:17:14.954Z,4.23
2023-05-01T15:19:43.513Z,5.67
2023-05-01T15:22:12.092Z,4.03
2023-05-01T15:24:40.723Z,4.33
2023-05-01T15:27:09.292Z,7.17
2023-05-01T15:29:37.881Z,5.03
2023-05-01T15:32:12.551Z,6.10
2023-05-01T15:34:43.034Z,7.60
2023-05-01T15:37:11.744Z,4.17
2023-05-01T15:39:40.670Z,4.00
2023-05-01T15:42:09.749Z,3.93
2023-05-01T15:44:39.769Z,4.53
2023-05-01T15:47:08.549Z,5.13
2023-05-01T15:49:37.258Z,4.30
2023-05-01T15:52:07.598Z,6.80
2023-05-01T15:54:36.122Z,4.97
2023-05-01T15:57:04.699Z,6.73
2023-05-01T15:59:33.294Z,4.50
2023-05-01T16:02:02.196Z,4.23
2023-05-01T16:04:30.775Z,11.43
2023-05-01T16:06:59.336Z,6.57
2023-05-01T16:09:32.593Z,7.17
2023-05-01T16:12:03.259Z,4.40
2023-05-01T16:14:32.146Z,6.30
2023-05-01T16:17:01.433Z,5.80
2023-05-01T16:19:30.919Z,4.77
2023-05-01T16:21:59.648Z,4.80
2023-05-01T16:24:29.638Z,5.00
2023-05-01T16:26:58.265Z,9.47
2023-05-01T16:29:26.945Z,7.00
2023-05-01T16:31:55.651Z,12.70
2023-05-01T16:34:26.274Z,6.93
2023-05-01T16:36:56.471Z,5.60
2023-05-01T16:39:28.523Z,6.20
2023-05-01T16:41:57.183Z,8.13
2023-05-01T16:44:25.812Z,8.10
2023-05-01T16:46:55.065Z,9.07
2023-05-01T16:49:27.157Z,5.30
2023-05-01T16:51:58.805Z,4.47
2023-05-01T16:54:32.329Z,4.90
2023-05-01T16:57:01.433Z,9.37
2023-05-01T16:59:30.049Z,8.07
2023-05-01T17:02:00.444Z,5.03
2023-05-01T17:04:29.355Z,7.43
2023-05-01T17:06:58.182Z,4.00
2023-05-01T17:09:27.060Z,6.63
2023-05-01T17:11:58.953Z,10.33
2023-05-01T17:14:28.807Z,7.43
2023-05-01T17:16:58.708Z,8.77
2023-05-01T17:19:27.470Z,10.77
2023-05-01T17:21:57.840Z,11.03
2023-05-01T17:24:26.976Z,6.70
2023-05-01T17:26:57.258Z,7.07
2023-05-01T17:29:25.822Z,8.53
2023-05-01T17:31:54.553Z,4.90
2023-05-01T17:34:23.182Z,12.30
2023-05-01T17:36:55.851Z,5.50
2023-05-01T17:39:29.820Z,8.20
2023-05-01T17:41:59.815Z,5.23
2023-05-01T17:44:28.332Z,5.87
2023-05-01T17:46:56.928Z,8.03
2023-05-01T17:49:25.636Z,4.90
2023-05-01T17:51:54.275Z,5.47
2023-05-01T17:54:22.884Z,6.80
2023-05-01T17:56:51.760Z,5.30
2023-05-01T18:03:09.834Z,4.40
2023-05-01T18:05:38.562Z,9.50
2023-05-01T18:08:08.060Z,8.33
2023-05-01T18:10:37.552Z,6.70
2023-05-01T18:13:06.136Z,8.23
2023-05-01T18:15:34.795Z,7.73
2023-05-01T18:18:04.769Z,15.00
2023-05-01T18:20:35.010Z,7.73
2023-05-01T18:23:03.887Z,12.13
2023-05-01T18:25:32.505Z,11.07
2023-05-01T18:28:01.141Z,11.50
2023-05-01T18:30:29.835Z,10.00
2023-05-01T18:32:58.510Z,8.97
2023-05-01T18:35:27.177Z,11.27
2023-05-01T18:37:57.130Z,10.03
2023-05-01T18:40:27.847Z,15.50
2023-05-01T18:42:56.663Z,14.57
2023-05-01T18:45:25.271Z,21.17
2023-05-01T18:47:53.986Z,21.37
2023-05-01T18:50:24.582Z,18.47
2023-05-01T18:52:56.146Z,17.83
2023-05-01T18:55:25.210Z,12.97
2023-05-01T18:57:54.073Z,13.73
2023-05-01T19:00:22.812Z,14.30
2023-05-01T19:02:53.112Z,14.03
2023-05-01T19:05:22.529Z,14.70
2023-05-01T19:07:51.290Z,16.77
2023-05-01T19:10:21.282Z,12.30
2023-05-01T19:12:50.231Z,15.57
2023-05-01T19:15:18.964Z,11.70
2023-05-01T19:17:47.686Z,13.80
2023-05-01T19:20:16.510Z,12.97
2023-05-01T19:22:45.172Z,14.30
2023-05-01T19:25:13.742Z,9.87
2023-05-01T19:27:44.053Z,11.87
2023-05-01T19:30:13.019Z,9.97
2023-05-01T19:32:41.682Z,11.50
2023-05-01T19:35:11.715Z,15.20
2023-05-01T19:37:40.308Z,9.53
2023-05-01T19:40:09.667Z,15.30
2023-05-01T19:42:38.196Z,17.20
2023-05-01T19:45:09.523Z,29.60
2023-05-01T19:47:38.277Z,48.27
2023-05-01T19:50:07.916Z,21.13
2023-05-01T19:52:36.573Z,18.73
2023-05-01T19:55:05.913Z,19.77
2023-05-01T19:57:34.883Z,17.90
2023-05-01T20:00:04.080Z,18.90
2023-05-01T20:02:34.140Z,20.57
2023-05-01T20:05:02.871Z,24.33
2023-05-01T20:07:31.490Z,20.17
2023-05-01T20:10:00.604Z,27.33
2023-05-01T20:12:29.410Z,31.20
2023-05-01T20:15:00.445Z,31.23
2023-05-01T20:17:29.278Z,31.20
2023-05-01T20:19:59.717Z,23.83
2023-05-01T20:22:28.526Z,25.50
2023-05-01T20:24:57.154Z,29.77
2023-05-01T20:27:26.191Z,29.47
2023-05-01T20:29:54.805Z,28.30
2023-05-01T20:32:23.488Z,21.67
2023-05-01T20:34:55.193Z,26.27
2023-05-01T20:37:25.574Z,27.50
2023-05-01T20:39:54.164Z,30.80
2023-05-01T20:42:22.843Z,27.23
2023-05-01T20:44:51.432Z,24.20
2023-05-01T20:47:20.056Z,21.03
2023-05-01T20:49:48.665Z,19.83
2023-05-01T20:52:17.235Z,16.33
2023-05-01T20:54:47.228Z,18.37
2023-05-01T20:57:17.342Z,27.00
2023-05-01T20:59:48.773Z,23.33
2023-05-01T21:02:17.568Z,16.87
2023-05-01T21:04:47.239Z,19.83
2023-05-01T21:07:15.879Z,28.93
2023-05-01T21:09:49.104Z,18.97
2023-05-01T21:12:17.903Z,19.30
2023-05-01T21:14:46.575Z,16.83
2023-05-01T21:17:15.416Z,18.20
2023-05-01T21:19:44.848Z,16.63
2023-05-01T21:22:16.232Z,24.10
2023-05-01T21:24:45.237Z,23.77
2023-05-01T21:27:15.273Z,21.20
2023-05-01T21:29:45.785Z,26.90
2023-05-01T21:32:14.378Z,18.70
2023-05-01T21:34:42.990Z,21.83
2023-05-01T21:37:13.856Z,17.93
2023-05-01T21:39:42.490Z,16.10
2023-05-01T21:42:11.118Z,17.47
2023-05-01T21:44:41.094Z,16.03
2023-05-01T21:47:10.547Z,12.73
2023-05-01T21:49:39.763Z,13.40
2023-05-01T21:52:08.898Z,16.43
2023-05-01T21:54:38.589Z,14.80
2023-05-01T21:57:07.997Z,15.27
2023-05-01T21:59:37.986Z,19.70
2023-05-01T22:02:08.614Z,17.97
2023-05-01T22:04:37.591Z,23.33
2023-05-01T22:07:06.413Z,18.93
2023-05-01T22:09:35.069Z,29.13
2023-05-01T22:12:05.511Z,32.97
2023-05-01T22:14:46.862Z,29.57
2023-05-01T22:17:24.128Z,32.83
2023-05-01T22:19:52.986Z,35.00
2023-05-01T22:22:21.586Z,43.60
2023-05-01T22:24:52.850Z,41.00
2023-05-01T22:27:21.505Z,40.67
2023-05-01T22:29:50.088Z,31.93
2023-05-01T22:32:20.165Z,24.33
2023-05-01T22:34:48.782Z,25.63
2023-05-01T22:37:17.421Z,22.20
2023-05-01T22:39:46.135Z,20.20
2023-05-01T22:42:14.784Z,22.53
2023-05-01T22:44:43.356Z,16.37
2023-05-01T22:47:11.901Z,19.17
2023-05-01T22:49:42.533Z,15.87
2023-05-01T22:52:11.163Z,18.50
2023-05-01T22:54:39.777Z,16.60
2023-05-01T22:57:08.351Z,11.37
2023-05-01T22:59:37.564Z,26.80
2023-05-01T23:02:06.226Z,10.50
2023-05-01T23:04:34.853Z,12.83
2023-05-01T23:07:04.878Z,15.27
2023-05-01T23:09:33.470Z,16.50
2023-05-01T23:12:02.179Z,12.67
2023-05-01T23:14:30.787Z,13.33
2023-05-01T23:16:59.674Z,10.90
2023-05-01T23:19:28.299Z,15.20
2023-05-01T23:22:08.342Z,12.27
2023-05-01T23:24:44.186Z,14.07
2023-05-01T23:27:13.505Z,8.80
2023-05-01T23:29:42.131Z,13.37
2023-05-01T23:32:19.287Z,11.67
2023-05-01T23:34:47.914Z,7.50
2023-05-01T23:37:20.120Z,12.17
2023-05-01T23:39:49.290Z,10.57
2023-05-01T23:42:17.872Z,18.47
2023-05-01T23:44:46.503Z,20.43
2023-05-01T23:47:15.499Z,8.27
2023-05-01T23:49:44.149Z,10.27
2023-05-01T23:52:12.760Z,8.60
2023-05-01T23:54:42.841Z,13.40
2023-05-01T23:57:11.388Z,12.33
2023-05-01T23:59:40.002Z,12.90
